»·PEaware :: PSV335 KSAN-KSBA

PSV335 :: KSAN-KSBA

FLIGHT INFORMATION

Flight Status: Arrived
Operator:
Power Set Virtual (website)
More flights by this operator :: More flights under this callsign
Pilot: Juan B. (20291)
Aircraft: BOEING 737-800
(B738)
More flights by this aircraft type
Origin: KSAN San Diego Intl-Lindbergh
United States
Destination: KSBA Santa Barbara Mun
United States
More flights between these airports :: More routes between these airports
Route: +CWARD2 CWARD AVOLS V208 VTU VTU282 KWANG
File this flight plan on PilotEdge
Remarks: PSV callsign "Power"
Altitude:
(Current/Filed)
10,000ft
Speed:
(Current/Filed)
300kts
Departed: 25-Apr-20 04:29 PM
Arrived: 25-Apr-20 05:11 PM
Distance/Time
Traveled:
167nm/0:42
Distance/Time
To Go:
Arrived

Flight Plot

Page will automatically refresh every two minutes.


Map Options




Map Legend


Flown Route
Filed Route
Departure Airport
Arrival Airport
Navaid (VOR, NDB)
Fix

Horizontal Profiles

Position Reports

Time Latitude Longitude Heading Altitude Ground
Speed
25-Apr-20 15:54 32.733014 -117.197846 304 21ft 0kts
25-Apr-20 15:55 32.733014 -117.197846 304 21ft 0kts
25-Apr-20 15:57 32.733014 -117.197846 304 21ft 0kts
25-Apr-20 15:57 32.733014 -117.197846 304 21ft 0kts
25-Apr-20 15:58 32.733014 -117.197846 304 21ft 0kts
25-Apr-20 15:59 32.733014 -117.197846 304 21ft 0kts
25-Apr-20 16:00 32.733014 -117.197846 304 21ft 0kts
25-Apr-20 16:01 32.733014 -117.197846 304 21ft 0kts
25-Apr-20 16:02 32.733014 -117.197846 304 21ft 0kts
25-Apr-20 16:03 32.733014 -117.197846 304 21ft 0kts
25-Apr-20 16:04 32.733014 -117.197846 304 21ft 0kts
25-Apr-20 16:05 32.733014 -117.197846 304 21ft 0kts
25-Apr-20 16:06 32.733014 -117.197846 304 21ft 0kts
25-Apr-20 16:07 32.733014 -117.197846 304 21ft 0kts
25-Apr-20 16:08 32.733014 -117.197846 304 21ft 0kts
25-Apr-20 16:09 32.733014 -117.197846 304 21ft 0kts
25-Apr-20 16:10 32.733014 -117.197846 304 21ft 0kts
25-Apr-20 16:11 32.733014 -117.197846 304 21ft 0kts
25-Apr-20 16:12 32.733014 -117.197846 304 21ft 0kts
25-Apr-20 16:13 32.733014 -117.197846 304 21ft 0kts
25-Apr-20 16:14 32.733014 -117.197846 304 21ft 0kts
25-Apr-20 16:15 32.733014 -117.197846 304 21ft 0kts
25-Apr-20 16:16 32.733014 -117.197846 304 21ft 0kts
25-Apr-20 16:17 32.733013 -117.197841 304 21ft 1kts
25-Apr-20 16:18 32.732888 -117.197266 288 21ft 0kts
25-Apr-20 16:19 32.732888 -117.197266 288 21ft 0kts
25-Apr-20 16:20 32.732888 -117.197266 288 21ft 0kts
25-Apr-20 16:21 32.733658 -117.197115 18 20ft 8kts
25-Apr-20 16:22 32.733776 -117.194810 106 24ft 15kts
25-Apr-20 16:23 32.732358 -117.188979 105 22ft 21kts
25-Apr-20 16:24 32.730550 -117.181508 105 20ft 24kts
25-Apr-20 16:25 32.729495 -117.177194 104 25ft 1kts
25-Apr-20 16:26 32.730120 -117.175745 343 27ft 9kts
25-Apr-20 16:27 32.730279 -117.176063 286 27ft 14kts
25-Apr-20 16:28 32.740645 -117.217575 287 1211ft 176kts
25-Apr-20 16:29 32.758071 -117.282210 286 3275ft 242kts
25-Apr-20 16:30 32.780643 -117.367274 286 6493ft 280kts
25-Apr-20 16:31 32.811254 -117.453645 321 9808ft 297kts
25-Apr-20 16:32 32.882676 -117.504976 327 10008ft 297kts
25-Apr-20 16:33 32.951359 -117.560007 326 10015ft 297kts
25-Apr-20 16:34 33.017792 -117.613531 325 10019ft 298kts
25-Apr-20 16:35 33.088196 -117.670284 324 10019ft 293kts
25-Apr-20 16:36 33.155088 -117.724256 323 10018ft 289kts
25-Apr-20 16:37 33.222145 -117.778404 323 10041ft 289kts
25-Apr-20 16:38 33.289112 -117.832519 323 10045ft 290kts
25-Apr-20 16:39 33.354966 -117.887501 309 10045ft 290kts
25-Apr-20 16:40 33.378856 -117.974907 263 10057ft 285kts
25-Apr-20 16:41 33.369288 -118.063361 262 10064ft 286kts
25-Apr-20 16:42 33.359585 -118.162991 262 10082ft 286kts
25-Apr-20 16:43 33.353108 -118.239216 270 10097ft 287kts
25-Apr-20 16:44 33.356833 -118.282685 277 10102ft 288kts
25-Apr-20 16:45 33.380776 -118.421226 295 10101ft 290kts
25-Apr-20 16:46 33.439458 -118.511596 308 10099ft 292kts
25-Apr-20 16:47 33.491926 -118.586214 308 10099ft 292kts
25-Apr-20 16:48 33.543555 -118.659918 308 10100ft 292kts
25-Apr-20 16:49 33.595707 -118.734528 308 10101ft 292kts
25-Apr-20 16:50 33.647769 -118.809155 308 10074ft 291kts
25-Apr-20 16:51 33.696550 -118.879239 307 10042ft 265kts
25-Apr-20 16:52 33.743909 -118.947422 307 10028ft 265kts
25-Apr-20 16:53 33.791018 -119.011248 307 10027ft 240kts
25-Apr-20 16:54 33.835686 -119.072721 308 10031ft 243kts
25-Apr-20 16:55 33.880623 -119.134439 308 10032ft 244kts
25-Apr-20 16:56 33.925437 -119.195974 308 10032ft 244kts
25-Apr-20 16:57 33.970632 -119.258015 308 10021ft 244kts
25-Apr-20 16:58 34.017275 -119.322581 308 8545ft 253kts
25-Apr-20 16:59 34.062425 -119.385442 308 7236ft 242kts
25-Apr-20 17:00 34.105671 -119.445976 308 6057ft 234kts
25-Apr-20 17:01 34.147150 -119.504064 308 6014ft 228kts
25-Apr-20 17:02 34.188727 -119.562297 308 6015ft 229kts
25-Apr-20 17:03 34.232696 -119.618245 324 5913ft 238kts
25-Apr-20 17:04 34.289071 -119.658812 327 4476ft 230kts
25-Apr-20 17:05 34.343755 -119.698138 327 4014ft 226kts
25-Apr-20 17:06 34.388805 -119.729062 330 2969ft 160kts
25-Apr-20 17:07 34.425495 -119.756431 304 1374ft 152kts
25-Apr-20 17:08 34.428343 -119.804837 267 586ft 145kts
25-Apr-20 17:09 34.427624 -119.847412 268 20ft 50kts
25-Apr-20 17:10 34.426443 -119.851061 88 20ft 11kts
25-Apr-20 17:11 34.426542 -119.845757 88 20ft 17kts
25-Apr-20 17:12 34.426671 -119.840074 89 20ft 15kts
25-Apr-20 17:13 34.425980 -119.836943 1 17ft 0kts
25-Apr-20 17:14 34.425980 -119.836943 1 17ft 0kts
25-Apr-20 17:15 34.425980 -119.836943 1 17ft 0kts
25-Apr-20 17:16 34.425980 -119.836943 1 17ft 0kts
25-Apr-20 17:17 34.425980 -119.836943 1 17ft 0kts

Navigation Log

Ident Type
Flight plan parsing failed, navigation log unavailable